Time;durP1;ratioP1;P1;durP2;ratioP2;P2;SDS_P1;SDS_P2;PMS_P1;PMS_P2;Temp;Humidity;BMP_temperature;BMP_pressure;BME280_temperature;BME280_humidity;BME280_pressure;Samples;Min_cycle;Max_cycle;Signal;HPM_P1;HPM_P2
2022/09/11 00:01:28;;;;;;;1.63;0.60;;;13.50;99.90;;;;;;5052865;28;20024;-75
2022/09/11 00:03:56;;;;;;;2.95;0.63;;;13.60;99.90;;;;;;5055037;28;20140;-78
2022/09/11 00:06:25;;;;;;;7.85;1.27;;;13.60;99.90;;;;;;5055673;28;20021;-75
2022/09/11 00:08:58;;;;;;;2.63;0.60;;;13.60;99.90;;;;;;5055262;28;20024;-78
2022/09/11 00:11:39;;;;;;;4.65;0.80;;;13.70;99.90;;;;;;5054260;28;20481;-75
2022/09/11 00:14:09;;;;;;;2.55;0.98;;;13.80;99.90;;;;;;5055078;28;20028;-75
2022/09/11 00:16:40;;;;;;;1.00;0.50;;;13.70;99.90;;;;;;5055764;28;20020;-77
2022/09/11 00:19:14;;;;;;;5.15;0.90;;;13.80;99.90;;;;;;5055487;28;20020;-77
2022/09/11 00:21:42;;;;;;;4.65;1.10;;;13.80;99.90;;;;;;5053283;28;20500;-77
2022/09/11 00:24:10;;;;;;;3.78;0.93;;;13.90;99.90;;;;;;5054132;28;20025;-80
2022/09/11 00:26:39;;;;;;;3.83;0.95;;;13.90;99.90;;;;;;5054287;28;20052;-80
2022/09/11 00:29:08;;;;;;;4.43;1.50;;;13.90;99.90;;;;;;5055706;28;20059;-78
2022/09/11 00:31:36;;;;;;;1.75;0.73;;;14.00;99.90;;;;;;5055599;28;20474;-77
2022/09/11 00:34:03;;;;;;;2.05;0.68;;;14.10;99.90;;;;;;5055449;28;20481;-79
2022/09/11 00:36:33;;;;;;;8.02;0.93;;;14.10;99.90;;;;;;5055532;28;20120;-75
2022/09/11 00:39:01;;;;;;;2.53;0.77;;;14.10;99.90;;;;;;5052939;28;20021;-81
2022/09/11 00:41:35;;;;;;;2.83;1.08;;;14.10;99.90;;;;;;5055462;28;20021;-76
2022/09/11 00:44:17;;;;;;;2.42;0.65;;;14.20;99.90;;;;;;5060070;28;20029;-75
2022/09/11 00:46:49;;;;;;;3.28;0.70;;;14.30;99.90;;;;;;5053438;28;20020;-75
2022/09/11 00:49:23;;;;;;;2.70;0.70;;;14.40;99.90;;;;;;5055342;28;20029;-74
2022/09/11 00:51:56;;;;;;;3.00;0.90;;;14.50;99.90;;;;;;5055277;28;20021;-74
2022/09/11 00:54:29;;;;;;;1.08;0.43;;;14.60;99.90;;;;;;5054744;28;20475;-76
2022/09/11 00:57:00;;;;;;;2.67;0.88;;;14.50;99.90;;;;;;5054381;28;20482;-82
2022/09/11 00:59:30;;;;;;;2.30;0.50;;;14.50;99.90;;;;;;5055195;28;20078;-73
2022/09/11 01:01:57;;;;;;;2.88;0.73;;;14.60;99.90;;;;;;5054323;28;20048;-74
2022/09/11 01:04:28;;;;;;;1.95;0.63;;;14.60;99.90;;;;;;5053855;28;20037;-77
2022/09/11 01:07:00;;;;;;;3.28;0.45;;;14.70;99.90;;;;;;5053705;28;20400;-77
2022/09/11 01:09:31;;;;;;;1.65;0.60;;;14.80;99.90;;;;;;5054424;28;20037;-77
2022/09/11 01:12:17;;;;;;;3.17;0.70;;;14.90;99.90;;;;;;5053738;28;20420;-74
2022/09/11 01:15:10;;;;;;;5.97;0.55;;;14.90;99.90;;;;;;5053565;28;20500;-75
2022/09/11 01:18:02;;;;;;;2.80;0.68;;;15.00;99.90;;;;;;5051738;28;20112;-74
2022/09/11 01:20:52;;;;;;;1.08;0.40;;;14.90;99.90;;;;;;5053399;28;20382;-74
2022/09/11 01:23:36;;;;;;;1.73;0.47;;;15.00;99.90;;;;;;5031205;28;20055;-75
2022/09/11 01:26:22;;;;;;;1.45;0.52;;;15.10;99.90;;;;;;5052476;28;20059;-79
2022/09/11 01:29:18;;;;;;;2.00;0.50;;;15.20;99.90;;;;;;5052882;28;20021;-74
2022/09/11 01:31:59;;;;;;;1.77;0.63;;;15.20;99.90;;;;;;5050771;28;20048;-76
2022/09/11 01:34:57;;;;;;;3.17;1.00;;;15.30;99.90;;;;;;5052515;28;20025;-75
2022/09/11 01:38:08;;;;;;;1.42;0.43;;;15.50;99.90;;;;;;5021853;28;20025;-76
2022/09/11 01:40:44;;;;;;;1.52;0.55;;;15.60;99.90;;;;;;4967596;28;20027;-75
2022/09/11 01:43:16;;;;;;;2.90;0.70;;;15.70;99.90;;;;;;4962800;28;20038;-77
2022/09/11 01:45:47;;;;;;;2.78;0.70;;;15.70;99.90;;;;;;5019076;28;20108;-76
2022/09/11 01:48:18;;;;;;;2.22;0.52;;;15.90;99.90;;;;;;5053918;28;20020;-74
2022/09/11 01:50:48;;;;;;;0.77;0.40;;;15.80;99.90;;;;;;5052038;28;20028;-75
2022/09/11 01:53:20;;;;;;;7.60;0.68;;;15.90;99.90;;;;;;5052335;28;20070;-74
2022/09/11 01:56:02;;;;;;;1.58;0.50;;;15.90;99.90;;;;;;5053197;28;20094;-74
2022/09/11 01:58:35;;;;;;;3.20;0.68;;;16.00;99.90;;;;;;5053021;28;20122;-75
2022/09/11 02:01:15;;;;;;;2.72;0.43;;;16.00;99.90;;;;;;5054548;28;20035;-74
2022/09/11 02:04:04;;;;;;;1.85;0.60;;;16.00;99.90;;;;;;5054528;28;20497;-74
2022/09/11 02:06:39;;;;;;;2.70;0.68;;;16.20;99.90;;;;;;5053057;28;20025;-75
2022/09/11 02:09:10;;;;;;;0.75;0.40;;;16.10;99.90;;;;;;5051009;28;20359;-74
2022/09/11 02:11:41;;;;;;;1.23;0.57;;;16.10;99.90;;;;;;5050862;28;20028;-75
2022/09/11 02:14:45;;;;;;;1.77;0.50;;;16.20;99.90;;;;;;5050563;28;20474;-74
2022/09/11 02:17:15;;;;;;;2.22;0.57;;;16.40;99.90;;;;;;5047647;28;20435;-74
2022/09/11 02:19:43;;;;;;;1.20;0.30;;;16.50;99.90;;;;;;5051907;28;20108;-75
2022/09/11 02:22:11;;;;;;;3.35;0.40;;;16.50;99.90;;;;;;5052384;28;20021;-77
2022/09/11 02:24:38;;;;;;;2.28;0.65;;;16.50;99.90;;;;;;5052915;28;20063;-74
2022/09/11 02:27:10;;;;;;;1.80;0.70;;;16.50;99.90;;;;;;5053890;28;20112;-74
2022/09/11 02:29:38;;;;;;;1.40;0.70;;;16.60;99.90;;;;;;5054142;28;20029;-74
2022/09/11 02:32:09;;;;;;;0.90;0.50;;;16.80;99.90;;;;;;5053902;28;20025;-75
2022/09/11 02:34:39;;;;;;;2.08;0.40;;;16.80;99.90;;;;;;5053801;28;20020;-74
2022/09/11 02:37:19;;;;;;;1.70;0.80;;;16.70;99.90;;;;;;5054001;28;20024;-75
2022/09/11 02:40:11;;;;;;;3.13;0.65;;;16.70;98.20;;;;;;5052704;28;20468;-74
2022/09/11 02:42:55;;;;;;;3.00;0.50;;;16.80;98.30;;;;;;5053965;28;20016;-73
2022/09/11 02:45:44;;;;;;;1.70;0.60;;;16.90;99.50;;;;;;5053726;28;20032;-74
2022/09/11 02:48:37;;;;;;;1.98;0.60;;;17.00;99.10;;;;;;5053711;28;20028;-77
2022/09/11 02:51:31;;;;;;;1.98;0.68;;;17.10;99.60;;;;;;5053720;28;20021;-75
2022/09/11 02:54:17;;;;;;;2.30;0.50;;;17.10;97.60;;;;;;5053429;28;20374;-74
2022/09/11 02:57:01;;;;;;;0.98;0.30;;;16.90;95.30;;;;;;5054093;28;20039;-74
2022/09/11 02:59:40;;;;;;;3.10;0.40;;;16.80;96.10;;;;;;5054183;28;20441;-75
2022/09/11 03:02:14;;;;;;;2.35;0.85;;;17.00;98.70;;;;;;5053370;28;20521;-74
2022/09/11 03:04:41;;;;;;;3.78;0.77;;;17.10;97.80;;;;;;5053353;28;20065;-74
2022/09/11 03:07:09;;;;;;;1.65;0.55;;;17.10;99.20;;;;;;5053462;28;20029;-74
2022/09/11 03:09:37;;;;;;;0.75;0.40;;;17.30;98.30;;;;;;5053462;28;20383;-75
2022/09/11 03:12:05;;;;;;;1.90;0.50;;;17.30;97.70;;;;;;5053464;28;20344;-75
2022/09/11 03:14:34;;;;;;;1.58;0.60;;;17.40;97.60;;;;;;5053346;28;20403;-74
2022/09/11 03:17:03;;;;;;;1.95;0.40;;;17.50;95.30;;;;;;5053285;28;20533;-74
2022/09/11 03:19:31;;;;;;;0.90;0.40;;;17.50;95.30;;;;;;5053484;28;20040;-75
2022/09/11 03:21:59;;;;;;;1.02;0.43;;;17.60;94.30;;;;;;5053201;28;20032;-75
2022/09/11 03:24:27;;;;;;;2.97;0.73;;;17.50;90.20;;;;;;5053145;28;20041;-76
2022/09/11 03:26:54;;;;;;;1.83;0.70;;;17.50;90.90;;;;;;5053341;28;20146;-75
2022/09/11 03:29:22;;;;;;;1.63;0.38;;;17.60;90.90;;;;;;5053377;28;20029;-75
2022/09/11 03:31:50;;;;;;;0.75;0.38;;;17.60;91.40;;;;;;5053165;28;20021;-75
2022/09/11 03:34:18;;;;;;;5.53;0.60;;;17.70;94.70;;;;;;5053032;28;20025;-74
2022/09/11 03:36:49;;;;;;;1.38;0.50;;;17.70;91.60;;;;;;5056062;28;20102;-75
2022/09/11 03:39:19;;;;;;;1.48;0.60;;;17.80;93.20;;;;;;5057203;28;20036;-76
2022/09/11 03:41:50;;;;;;;4.22;0.60;;;18.00;95.50;;;;;;5057262;28;20456;-76
2022/09/11 03:44:18;;;;;;;1.33;0.57;;;18.00;94.30;;;;;;5057141;28;20032;-74
2022/09/11 03:46:45;;;;;;;2.25;0.75;;;17.90;93.70;;;;;;5057120;28;20022;-75
2022/09/11 03:49:14;;;;;;;2.08;0.60;;;17.90;93.50;;;;;;5057220;28;20029;-75
2022/09/11 03:51:42;;;;;;;1.17;0.52;;;17.90;91.50;;;;;;5056977;28;20025;-76
2022/09/11 03:54:11;;;;;;;2.28;0.40;;;17.90;91.20;;;;;;5056816;28;20029;-74
2022/09/11 03:56:39;;;;;;;3.10;0.50;;;17.90;94.30;;;;;;5057083;28;20111;-75
2022/09/11 03:59:06;;;;;;;4.20;0.50;;;18.00;93.20;;;;;;5056697;28;20025;-75
2022/09/11 04:01:34;;;;;;;2.35;0.63;;;18.10;93.30;;;;;;5056983;28;20094;-75
2022/09/11 04:04:03;;;;;;;1.10;0.50;;;18.10;92.50;;;;;;5056564;28;20033;-74
2022/09/11 04:06:31;;;;;;;2.08;0.60;;;18.10;92.70;;;;;;5056697;28;20396;-75
2022/09/11 04:09:00;;;;;;;1.25;0.47;;;18.10;93.60;;;;;;5056765;28;20032;-74
2022/09/11 04:11:28;;;;;;;2.00;0.50;;;18.20;94.90;;;;;;5056683;28;20512;-75
2022/09/11 04:13:56;;;;;;;2.95;0.40;;;18.30;92.80;;;;;;5056064;28;20027;-75
2022/09/11 04:16:24;;;;;;;1.73;0.63;;;18.30;93.80;;;;;;5056526;28;20029;-75
2022/09/11 04:18:53;;;;;;;1.92;0.40;;;18.40;93.70;;;;;;5056467;28;20466;-78
2022/09/11 04:21:20;;;;;;;1.83;0.70;;;18.30;93.60;;;;;;5056478;28;20478;-76
2022/09/11 04:24:01;;;;;;;2.20;0.55;;;18.40;94.70;;;;;;5056327;28;20158;-73
2022/09/11 04:26:31;;;;;;;1.75;0.65;;;18.30;91.30;;;;;;5056345;28;20086;-74
2022/09/11 04:29:00;;;;;;;2.83;0.55;;;18.30;91.50;;;;;;5056305;28;20021;-74
2022/09/11 04:31:28;;;;;;;1.40;0.75;;;18.30;92.20;;;;;;5056036;28;20029;-75
2022/09/11 04:33:56;;;;;;;0.82;0.40;;;18.50;91.80;;;;;;5056341;28;20397;-73
2022/09/11 04:36:25;;;;;;;0.90;0.50;;;18.50;95.00;;;;;;5056173;28;20071;-75
2022/09/11 04:38:59;;;;;;;1.50;0.55;;;18.60;94.30;;;;;;5056055;28;20053;-74
2022/09/11 04:41:27;;;;;;;3.05;0.60;;;18.50;93.30;;;;;;5055890;28;20075;-74
2022/09/11 04:43:57;;;;;;;1.63;0.47;;;18.50;93.50;;;;;;5055849;28;20068;-73
2022/09/11 04:46:25;;;;;;;2.55;0.68;;;18.60;91.90;;;;;;5056020;28;20024;-74
2022/09/11 04:48:55;;;;;;;1.33;0.43;;;18.50;93.00;;;;;;5055157;28;20371;-73
2022/09/11 04:51:27;;;;;;;1.55;0.50;;;18.50;90.20;;;;;;5055807;28;20025;-75
2022/09/11 04:53:58;;;;;;;6.22;0.80;;;18.50;91.60;;;;;;5055628;28;20075;-74
2022/09/11 04:56:28;;;;;;;0.75;0.40;;;18.50;93.20;;;;;;5055976;28;20029;-74
2022/09/11 04:59:01;;;;;;;1.02;0.60;;;18.50;95.00;;;;;;5055693;28;20427;-74
2022/09/11 05:01:31;;;;;;;2.03;0.90;;;18.50;95.50;;;;;;5055589;28;20101;-75
2022/09/11 05:04:01;;;;;;;2.83;0.80;;;18.50;94.80;;;;;;5055478;28;20037;-75
2022/09/11 05:06:30;;;;;;;1.17;0.50;;;18.40;96.30;;;;;;5055628;28;20021;-75
2022/09/11 05:09:10;;;;;;;4.47;0.70;;;18.30;95.80;;;;;;5055566;28;20028;-78
2022/09/11 05:11:38;;;;;;;1.67;0.40;;;18.20;96.70;;;;;;5055562;28;20052;-75
2022/09/11 05:14:06;;;;;;;3.58;0.82;;;18.20;93.80;;;;;;5055389;28;20021;-79
2022/09/11 05:16:34;;;;;;;2.90;0.68;;;18.30;93.30;;;;;;5055572;28;20014;-78
2022/09/11 05:19:03;;;;;;;2.42;0.80;;;18.30;92.60;;;;;;5055332;28;20032;-75
2022/09/11 05:21:32;;;;;;;3.47;1.00;;;18.30;93.30;;;;;;5055360;28;20013;-76
2022/09/11 05:24:01;;;;;;;2.22;0.52;;;18.30;94.00;;;;;;5055230;28;20035;-75
2022/09/11 05:26:32;;;;;;;1.65;0.60;;;18.20;92.00;;;;;;5053880;28;20025;-77
2022/09/11 05:29:12;;;;;;;2.17;0.93;;;18.20;94.80;;;;;;5054943;28;20082;-75
2022/09/11 05:31:40;;;;;;;4.85;0.70;;;18.10;94.30;;;;;;5055144;28;20049;-79
2022/09/11 05:34:08;;;;;;;2.95;0.80;;;18.10;96.20;;;;;;5054826;28;20029;-75
2022/09/11 05:36:36;;;;;;;1.38;0.40;;;18.00;95.70;;;;;;5055124;28;20021;-76
2022/09/11 05:39:04;;;;;;;1.00;0.60;;;18.00;95.70;;;;;;5054993;28;20033;-77
2022/09/11 05:41:32;;;;;;;5.93;0.65;;;18.00;95.10;;;;;;5054881;28;20025;-75
2022/09/11 05:44:00;;;;;;;2.10;0.65;;;18.00;96.60;;;;;;5053416;28;20040;-75
2022/09/11 05:46:27;;;;;;;3.15;0.60;;;18.00;96.80;;;;;;5053616;28;20151;-76
2022/09/11 05:48:56;;;;;;;1.38;0.55;;;17.90;96.90;;;;;;5054711;28;20166;-76
2022/09/11 05:51:23;;;;;;;1.10;0.50;;;18.00;95.80;;;;;;5054810;28;20032;-75
2022/09/11 05:53:56;;;;;;;2.50;0.50;;;17.90;96.40;;;;;;5054584;28;20029;-76
2022/09/11 05:56:25;;;;;;;3.00;0.50;;;17.90;96.10;;;;;;5054698;28;20021;-78
2022/09/11 05:58:53;;;;;;;2.05;0.73;;;17.90;96.70;;;;;;5054527;28;20028;-75
2022/09/11 06:01:24;;;;;;;1.58;0.50;;;17.90;97.20;;;;;;5054270;28;20381;-74
2022/09/11 06:03:53;;;;;;;0.90;0.40;;;17.80;97.50;;;;;;5054503;28;20036;-75
2022/09/11 06:06:22;;;;;;;1.48;0.90;;;17.80;97.40;;;;;;5054457;28;20374;-74
2022/09/11 06:08:51;;;;;;;1.45;0.40;;;17.70;97.20;;;;;;5054404;28;20021;-74
2022/09/11 06:11:20;;;;;;;1.75;0.52;;;17.70;98.90;;;;;;5054245;28;20490;-78
2022/09/11 06:13:49;;;;;;;1.88;0.47;;;17.70;97.40;;;;;;5054192;28;20083;-77
2022/09/11 06:16:21;;;;;;;3.70;0.70;;;17.70;98.70;;;;;;5054283;28;20024;-79
2022/09/11 06:18:54;;;;;;;4.57;0.57;;;17.60;98.00;;;;;;5053038;28;20057;-76
2022/09/11 06:21:26;;;;;;;1.95;0.63;;;17.60;98.30;;;;;;5052832;28;20029;-75
2022/09/11 06:23:54;;;;;;;2.40;0.77;;;17.50;98.40;;;;;;5053929;28;20047;-74
2022/09/11 06:26:25;;;;;;;3.90;1.00;;;17.50;98.60;;;;;;5054128;28;20420;-75
2022/09/11 06:28:54;;;;;;;1.95;0.50;;;17.50;99.20;;;;;;5053948;28;20031;-73
2022/09/11 06:31:24;;;;;;;2.40;0.50;;;17.50;98.10;;;;;;5054504;28;20465;-74
2022/09/11 06:33:52;;;;;;;1.73;0.50;;;17.40;99.50;;;;;;5053793;28;20091;-75
2022/09/11 06:36:31;;;;;;;5.20;1.02;;;17.30;99.30;;;;;;5053821;28;20032;-74
2022/09/11 06:38:59;;;;;;;0.80;0.70;;;17.20;98.40;;;;;;5052706;28;20382;-74
2022/09/11 06:41:28;;;;;;;4.35;0.70;;;17.20;98.80;;;;;;5052565;28;20445;-74
2022/09/11 06:43:55;;;;;;;1.90;0.60;;;17.20;99.90;;;;;;5053528;28;20117;-74
2022/09/11 06:46:25;;;;;;;2.55;0.85;;;17.20;98.80;;;;;;5053600;28;20119;-74
2022/09/11 06:48:52;;;;;;;1.20;0.90;;;17.10;99.30;;;;;;5053562;28;20386;-74
2022/09/11 06:51:22;;;;;;;1.30;0.68;;;17.20;99.20;;;;;;5053681;28;20017;-75
2022/09/11 06:53:56;;;;;;;2.15;0.88;;;17.10;98.70;;;;;;5052353;28;20533;-74
2022/09/11 06:56:25;;;;;;;1.38;0.47;;;17.10;98.90;;;;;;5053605;28;20082;-74
2022/09/11 06:58:52;;;;;;;1.10;0.52;;;17.00;99.50;;;;;;5053447;28;20051;-74
2022/09/11 07:01:22;;;;;;;2.45;0.52;;;17.00;99.90;;;;;;5053260;28;20099;-74
2022/09/11 07:03:52;;;;;;;4.35;1.13;;;16.90;99.30;;;;;;5053388;28;20477;-75
2022/09/11 07:06:25;;;;;;;2.70;0.55;;;16.90;99.70;;;;;;5053561;28;20127;-73
2022/09/11 07:09:01;;;;;;;1.20;0.70;;;16.80;99.60;;;;;;5053327;28;20021;-74
2022/09/11 07:11:31;;;;;;;1.65;0.65;;;16.80;99.90;;;;;;5052917;28;20083;-73
2022/09/11 07:14:04;;;;;;;2.53;0.80;;;16.80;99.90;;;;;;5053111;28;20021;-73
2022/09/11 07:16:33;;;;;;;1.63;0.75;;;16.70;99.90;;;;;;5051976;28;20052;-74
2022/09/11 07:19:02;;;;;;;2.47;0.55;;;16.60;99.90;;;;;;5053314;28;20020;-75
2022/09/11 07:21:31;;;;;;;2.90;1.15;;;16.60;99.90;;;;;;5053240;28;20021;-74
2022/09/11 07:23:59;;;;;;;3.25;0.63;;;16.60;99.90;;;;;;5052998;28;20030;-74
2022/09/11 07:26:29;;;;;;;2.17;0.70;;;16.50;99.90;;;;;;5053366;28;20122;-74
2022/09/11 07:28:58;;;;;;;2.05;0.90;;;16.40;99.90;;;;;;5053305;28;20078;-74
2022/09/11 07:31:29;;;;;;;1.40;0.80;;;16.30;99.90;;;;;;5051984;28;20107;-74
2022/09/11 07:33:57;;;;;;;4.35;1.42;;;16.30;99.90;;;;;;5053254;28;20022;-74
2022/09/11 07:36:27;;;;;;;3.83;0.77;;;16.20;99.90;;;;;;5053102;28;20021;-74
2022/09/11 07:38:55;;;;;;;2.65;1.00;;;16.10;99.90;;;;;;5053116;28;20021;-74
2022/09/11 07:41:26;;;;;;;2.70;1.10;;;16.10;99.90;;;;;;5053135;28;20120;-75
2022/09/11 07:43:59;;;;;;;3.40;1.20;;;16.10;99.90;;;;;;5052994;28;20033;-73
2022/09/11 07:46:29;;;;;;;2.90;0.88;;;16.00;99.90;;;;;;5052952;28;20021;-73
2022/09/11 07:48:57;;;;;;;1.75;0.90;;;15.90;99.90;;;;;;5053285;28;20025;-73
2022/09/11 07:51:25;;;;;;;2.30;0.98;;;15.80;99.90;;;;;;5053022;28;20030;-75
2022/09/11 07:53:56;;;;;;;2.08;0.70;;;15.80;99.90;;;;;;5052809;28;20025;-74
2022/09/11 07:56:25;;;;;;;4.25;1.05;;;15.70;99.90;;;;;;5053059;28;20470;-74
2022/09/11 07:58:54;;;;;;;1.40;0.70;;;15.70;99.90;;;;;;5052898;28;20032;-73
2022/09/11 08:01:28;;;;;;;1.52;0.75;;;15.60;99.90;;;;;;5052705;28;20017;-74
2022/09/11 08:04:04;;;;;;;3.20;0.95;;;15.60;99.90;;;;;;5052712;28;20090;-74
2022/09/11 08:06:34;;;;;;;2.20;0.90;;;15.60;99.90;;;;;;5052945;28;20025;-73
2022/09/11 08:09:08;;;;;;;3.13;1.38;;;15.50;99.90;;;;;;5052719;28;20028;-73
2022/09/11 08:11:47;;;;;;;5.93;1.00;;;15.50;99.90;;;;;;5053615;28;20377;-73
2022/09/11 08:14:17;;;;;;;2.00;1.00;;;15.40;99.90;;;;;;5052478;28;20096;-73
2022/09/11 08:16:45;;;;;;;4.78;1.20;;;15.40;99.90;;;;;;5052659;28;20017;-74
2022/09/11 08:19:19;;;;;;;3.15;1.10;;;15.40;99.90;;;;;;5052852;28;20052;-75
2022/09/11 08:21:48;;;;;;;2.67;0.85;;;15.30;99.90;;;;;;5052941;28;20025;-74
2022/09/11 08:24:18;;;;;;;1.77;0.80;;;15.30;99.90;;;;;;5055747;28;20508;-74
2022/09/11 08:26:47;;;;;;;2.05;1.00;;;15.30;99.90;;;;;;5056365;28;20021;-75
2022/09/11 08:29:14;;;;;;;4.82;0.75;;;15.30;99.90;;;;;;5056117;28;20025;-74
2022/09/11 08:31:44;;;;;;;2.28;0.88;;;15.20;99.90;;;;;;5052957;28;20443;-75
2022/09/11 08:34:11;;;;;;;1.63;0.65;;;15.10;99.90;;;;;;5054740;28;20021;-79
2022/09/11 08:36:39;;;;;;;2.92;1.15;;;15.10;99.90;;;;;;5061012;28;20024;-77
2022/09/11 08:39:08;;;;;;;4.53;0.73;;;15.10;99.90;;;;;;5057859;28;20028;-77
2022/09/11 08:41:55;;;;;;;4.63;0.80;;;15.00;99.90;;;;;;5069910;28;20033;-77
2022/09/11 08:44:24;;;;;;;1.42;0.70;;;15.00;99.90;;;;;;5066278;28;20036;-77
2022/09/11 08:47:05;;;;;;;1.67;0.90;;;14.90;99.90;;;;;;5074208;28;20024;-77
2022/09/11 08:49:43;;;;;;;4.22;1.13;;;14.90;99.90;;;;;;5069751;28;20499;-77
2022/09/11 08:52:14;;;;;;;1.55;0.80;;;14.80;99.90;;;;;;5048239;28;20016;-78
2022/09/11 08:54:42;;;;;;;1.52;0.70;;;14.80;99.90;;;;;;5062014;28;20090;-78
2022/09/11 08:57:31;;;;;;;5.15;1.13;;;14.80;99.90;;;;;;5056878;28;20347;-77
2022/09/11 09:00:06;;;;;;;3.78;1.02;;;14.70;99.90;;;;;;5056698;28;20112;-77
2022/09/11 09:03:11;;;;;;;1.63;0.45;;;14.70;99.90;;;;;;5047187;28;20041;-75
2022/09/11 09:06:12;;;;;;;3.00;0.80;;;14.60;99.90;;;;;;5069115;28;20037;-75
2022/09/11 09:09:09;;;;;;;2.30;0.80;;;14.60;99.90;;;;;;5050699;28;20432;-74
2022/09/11 09:12:03;;;;;;;2.22;0.90;;;14.60;99.90;;;;;;5054757;28;20021;-74
2022/09/11 09:14:45;;;;;;;3.35;0.63;;;14.50;99.90;;;;;;5055108;28;20086;-74
2022/09/11 09:17:28;;;;;;;1.95;0.88;;;14.40;99.90;;;;;;5054569;28;20036;-74
2022/09/11 09:20:32;;;;;;;1.95;0.70;;;14.40;99.90;;;;;;5054830;28;20025;-75
2022/09/11 09:23:13;;;;;;;2.60;0.60;;;14.40;99.90;;;;;;5055101;28;20024;-75
2022/09/11 09:25:42;;;;;;;3.53;0.73;;;14.30;99.90;;;;;;5042085;28;20033;-77
2022/09/11 09:28:30;;;;;;;3.50;1.20;;;14.20;99.90;;;;;;5053807;28;20075;-76
2022/09/11 09:31:00;;;;;;;5.30;0.93;;;14.20;99.90;;;;;;5059473;28;20037;-76
2022/09/11 09:33:55;;;;;;;1.20;0.55;;;14.20;99.90;;;;;;5057026;28;20052;-75
2022/09/11 09:36:32;;;;;;;1.63;0.90;;;14.20;99.90;;;;;;5065818;28;20127;-76
2022/09/11 09:39:00;;;;;;;1.58;0.68;;;14.20;99.90;;;;;;5061933;28;20486;-74
2022/09/11 09:42:19;;;;;;;2.38;1.00;;;14.20;99.90;;;;;;5048158;28;20127;-74
2022/09/11 09:45:01;;;;;;;2.40;0.88;;;14.20;99.90;;;;;;5036749;28;20505;-77
2022/09/11 09:47:29;;;;;;;2.75;0.65;;;14.10;99.90;;;;;;5035276;28;20030;-75
2022/09/11 09:49:57;;;;;;;2.00;0.77;;;14.10;99.90;;;;;;5045838;28;20025;-78
2022/09/11 09:52:32;;;;;;;1.83;0.57;;;14.10;99.90;;;;;;5056164;28;20028;-78
2022/09/11 09:55:11;;;;;;;2.27;0.50;;;14.00;99.90;;;;;;5053886;28;20017;-76
2022/09/11 09:57:38;;;;;;;2.20;0.63;;;14.00;99.90;;;;;;5048960;28;20016;-75
2022/09/11 10:00:09;;;;;;;4.15;0.95;;;13.90;99.90;;;;;;5063494;28;20155;-74
2022/09/11 10:02:38;;;;;;;3.60;0.90;;;13.90;99.90;;;;;;5057620;28;20044;-76
2022/09/11 10:05:26;;;;;;;2.35;0.70;;;13.80;99.90;;;;;;5053318;28;20072;-75
2022/09/11 10:08:01;;;;;;;4.80;0.65;;;13.80;99.90;;;;;;5043819;28;20025;-76
2022/09/11 10:10:30;;;;;;;4.35;1.23;;;13.80;99.90;;;;;;5060310;28;20037;-76
2022/09/11 10:13:19;;;;;;;3.17;0.75;;;13.70;99.90;;;;;;5036679;28;20474;-76
2022/09/11 10:15:48;;;;;;;1.70;0.70;;;13.70;99.90;;;;;;5037646;28;20611;-76
2022/09/11 10:18:22;;;;;;;2.13;0.50;;;13.70;99.90;;;;;;5034404;28;20024;-77
2022/09/11 10:20:50;;;;;;;2.53;0.60;;;13.60;99.90;;;;;;5036129;28;20022;-77
2022/09/11 10:23:28;;;;;;;3.13;0.63;;;13.60;99.90;;;;;;5036035;28;20124;-77
2022/09/11 10:25:55;;;;;;;2.05;0.90;;;13.60;99.90;;;;;;5034228;28;20100;-77
2022/09/11 10:28:31;;;;;;;2.33;0.57;;;13.50;99.90;;;;;;5036159;28;20025;-77
2022/09/11 10:31:03;;;;;;;2.05;0.45;;;13.50;99.90;;;;;;5038034;28;20017;-77
2022/09/11 10:33:55;;;;;;;2.92;0.90;;;13.40;99.90;;;;;;5035232;28;20029;-76
2022/09/11 10:36:30;;;;;;;2.97;0.88;;;13.40;99.90;;;;;;5034263;28;20100;-77
2022/09/11 10:39:00;;;;;;;4.60;0.85;;;13.40;99.90;;;;;;5035791;28;20021;-77
2022/09/11 10:41:35;;;;;;;2.47;0.90;;;13.30;99.90;;;;;;5035317;28;20033;-76
2022/09/11 10:44:15;;;;;;;1.90;0.60;;;13.20;99.90;;;;;;5036227;28;20059;-78
2022/09/11 10:46:44;;;;;;;1.88;0.88;;;13.20;99.90;;;;;;5035207;28;20834;-77
2022/09/11 10:49:20;;;;;;;2.72;0.93;;;13.10;99.90;;;;;;5035171;28;20013;-77
2022/09/11 10:52:17;;;;;;;1.55;0.52;;;13.10;99.90;;;;;;5032955;28;20060;-76
2022/09/11 10:55:06;;;;;;;1.98;0.50;;;13.10;99.90;;;;;;5033741;28;20017;-77
2022/09/11 10:57:45;;;;;;;3.50;0.98;;;13.00;99.90;;;;;;5035935;28;20025;-77
2022/09/11 11:00:20;;;;;;;1.40;0.73;;;13.00;99.90;;;;;;5034471;28;20028;-76
2022/09/11 11:03:04;;;;;;;2.40;0.77;;;12.90;99.90;;;;;;5034913;28;20045;-77
2022/09/11 11:06:07;;;;;;;4.88;0.70;;;12.90;99.90;;;;;;5064877;28;20047;-78
2022/09/11 11:08:57;;;;;;;;;;;12.90;99.90;;;;;;5047689;28;20439;-78
2022/09/11 11:11:24;;;;;;;1.45;0.70;;;12.90;99.90;;;;;;5066478;28;19911;-77
2022/09/11 11:14:20;;;;;;;1.20;0.43;;;12.90;99.90;;;;;;5068512;28;20052;-78
2022/09/11 11:17:22;;;;;;;2.83;0.95;;;12.90;99.90;;;;;;5043152;28;20029;-78
2022/09/11 11:20:18;;;;;;;1.77;0.55;;;12.90;99.90;;;;;;5054272;28;20501;-78
2022/09/11 11:23:03;;;;;;;2.40;0.90;;;12.90;99.90;;;;;;5036134;28;20036;-78
2022/09/11 11:26:00;;;;;;;1.90;0.88;;;12.80;99.90;;;;;;5053445;28;20032;-78
2022/09/11 11:28:46;;;;;;;1.77;0.88;;;12.80;99.90;;;;;;5052818;28;20086;-78
2022/09/11 11:31:38;;;;;;;2.20;0.95;;;12.80;99.90;;;;;;5052860;28;20090;-77
2022/09/11 11:34:14;;;;;;;6.00;1.02;;;12.70;99.90;;;;;;5043038;28;20100;-78
2022/09/11 11:37:03;;;;;;;1.15;0.65;;;12.60;99.90;;;;;;5060444;28;20550;-78
2022/09/11 11:39:55;;;;;;;2.70;1.08;;;12.60;99.90;;;;;;5057261;28;20124;-78
2022/09/11 11:42:33;;;;;;;1.95;0.63;;;12.60;99.90;;;;;;5061626;28;20025;-77
2022/09/11 11:45:21;;;;;;;3.53;0.90;;;12.50;99.90;;;;;;5056236;28;20029;-77
2022/09/11 11:47:50;;;;;;;3.83;1.10;;;12.50;99.90;;;;;;5050582;28;20045;-77
2022/09/11 11:50:26;;;;;;;2.47;0.75;;;12.50;99.90;;;;;;5051969;28;20055;-77
2022/09/11 11:53:17;;;;;;;3.45;0.93;;;12.50;99.90;;;;;;5065153;28;20017;-77
2022/09/11 11:55:53;;;;;;;2.50;1.10;;;12.40;99.90;;;;;;5045632;28;20027;-77
2022/09/11 11:58:59;;;;;;;3.00;1.15;;;12.40;99.90;;;;;;5064013;28;20393;-77
2022/09/11 12:01:43;;;;;;;15.35;1.42;;;12.30;99.90;;;;;;5060397;28;20032;-77
2022/09/11 12:04:35;;;;;;;2.05;0.98;;;12.30;99.90;;;;;;5063104;28;20032;-77
2022/09/11 12:07:05;;;;;;;5.63;1.45;;;12.30;99.90;;;;;;5066725;28;20028;-77
2022/09/11 12:09:33;;;;;;;3.58;1.17;;;12.30;99.90;;;;;;5061310;28;20481;-77
2022/09/11 12:12:06;;;;;;;2.03;0.82;;;12.20;99.90;;;;;;5057815;28;20025;-77
2022/09/11 12:14:34;;;;;;;5.30;1.17;;;12.20;99.90;;;;;;5055533;28;20078;-77
2022/09/11 12:17:34;;;;;;;2.30;1.05;;;12.10;99.90;;;;;;5065642;28;20091;-77
2022/09/11 12:20:11;;;;;;;3.40;1.33;;;12.10;99.90;;;;;;5064714;28;20067;-77
2022/09/11 12:22:44;;;;;;;4.85;1.23;;;12.10;99.90;;;;;;5059522;28;20094;-77
2022/09/11 12:25:20;;;;;;;4.38;1.27;;;12.00;99.90;;;;;;5066344;28;20034;-77
2022/09/11 12:27:54;;;;;;;3.05;1.08;;;11.90;99.90;;;;;;5066875;28;20023;-77
2022/09/11 12:30:25;;;;;;;2.95;1.17;;;11.90;99.90;;;;;;5056775;28;20482;-77
2022/09/11 12:33:01;;;;;;;5.88;0.70;;;11.90;99.90;;;;;;5054539;28;20478;-77
2022/09/11 12:35:50;;;;;;;2.92;1.15;;;11.80;99.90;;;;;;5069642;28;20391;-77
2022/09/11 12:38:43;;;;;;;1.65;0.73;;;11.70;99.90;;;;;;5067410;28;20024;-77
2022/09/11 12:41:21;;;;;;;4.63;1.30;;;11.70;99.90;;;;;;5046023;28;20473;-76
2022/09/11 12:43:49;;;;;;;4.30;1.10;;;11.70;99.90;;;;;;5052459;28;20043;-75
2022/09/11 12:46:22;;;;;;;5.18;1.92;;;11.70;99.90;;;;;;5054425;28;20017;-76
2022/09/11 12:48:53;;;;;;;7.53;1.38;;;11.60;99.90;;;;;;5056314;28;20437;-76
2022/09/11 12:51:33;;;;;;;1.67;0.90;;;11.50;99.90;;;;;;5056084;28;20478;-75
2022/09/11 12:54:13;;;;;;;3.47;0.90;;;11.50;99.90;;;;;;5055802;28;20108;-76
2022/09/11 12:56:53;;;;;;;2.45;1.00;;;11.50;99.90;;;;;;5054740;28;20112;-73
2022/09/11 12:59:32;;;;;;;4.28;1.48;;;11.50;99.90;;;;;;5055699;28;20413;-73
2022/09/11 13:02:01;;;;;;;7.47;2.72;;;11.40;99.90;;;;;;5055545;28;20489;-73
2022/09/11 13:04:33;;;;;;;6.75;3.40;;;11.40;99.90;;;;;;5054388;28;20051;-74
2022/09/11 13:07:06;;;;;;;13.45;5.05;;;11.40;99.90;;;;;;5055657;28;20056;-74
2022/09/11 13:09:48;;;;;;;10.35;3.45;;;11.30;99.90;;;;;;5054811;28;20025;-74
2022/09/11 13:12:24;;;;;;;11.98;6.13;;;11.30;99.90;;;;;;5055449;28;20110;-73
2022/09/11 13:14:56;;;;;;;8.30;2.75;;;11.30;99.90;;;;;;5055440;28;20033;-74
2022/09/11 13:17:46;;;;;;;5.13;2.85;;;11.20;99.90;;;;;;5055220;28;20068;-74
2022/09/11 13:20:20;;;;;;;9.27;4.60;;;11.20;99.90;;;;;;5055574;28;20035;-74
2022/09/11 13:22:48;;;;;;;4.50;3.20;;;11.10;99.90;;;;;;5055114;28;20119;-74
2022/09/11 13:25:18;;;;;;;9.68;4.15;;;11.10;99.90;;;;;;5055218;28;20492;-76
2022/09/11 13:27:54;;;;;;;12.13;4.25;;;11.10;99.90;;;;;;5055802;28;20025;-75